Terminal Aerodrome Forecast
Issued by NWS Milwaukee/Sullivan, WI

Home | Current Version | Previous Version | Text Only | Print | Product List | Glossary On
Versions: 1 2 3 4 5 6 7 8 9 10 11 12 13 14 15 16 17 18 19 20 21 22 23 24 25 26 27 28 29 30 31 32 33 34 35 36 37 38 39 40 41 42 43 44 45 46 47 48 49 50
000
FTUS43 KMKX 261739
TAFMKE
TAF
KMKE 261739Z 2618/2724 11006KT P6SM FEW035 BKN250
     FM262100 12006KT P6SM SCT040 BKN250
     FM270300 00000KT P6SM BKN120
     FM271200 12007KT 3SM -TSRA BR OVC010CB
     FM271800 15007KT 3SM -TSRA BR OVC020CB
     FM272100 18008KT P6SM VCTS BKN050CB=

USA.gov is the U.S. government's official web portal to all federal, state and local government web resources and services.